createdAt,value
2022-08-02T00:00:55.559Z,18.80
2022-08-02T00:03:26.665Z,18.80
2022-08-02T00:05:55.716Z,18.90
2022-08-02T00:08:24.716Z,18.90
2022-08-02T00:10:53.819Z,18.90
2022-08-02T00:13:22.935Z,19.00
2022-08-02T00:15:52.039Z,19.00
2022-08-02T00:18:21.195Z,18.90
2022-08-02T00:20:51.645Z,18.80
2022-08-02T00:23:20.608Z,18.90
2022-08-02T00:25:55.042Z,18.80
2022-08-02T00:28:27.342Z,18.70
2022-08-02T00:30:58.144Z,18.70
2022-08-02T00:34:27.362Z,18.70
2022-08-02T00:36:18.583Z,18.60
2022-08-02T00:38:48.174Z,18.60
2022-08-02T00:41:19.310Z,18.60
2022-08-02T00:43:49.665Z,18.70
2022-08-02T00:46:20.062Z,18.60
2022-08-02T00:48:49.868Z,18.60
2022-08-02T00:51:20.436Z,18.50
2022-08-02T00:53:49.974Z,18.40
2022-08-02T00:56:18.869Z,18.50
2022-08-02T00:58:47.777Z,18.50
2022-08-02T01:01:17.282Z,18.40
2022-08-02T01:03:46.417Z,18.40
2022-08-02T01:06:15.394Z,18.40
2022-08-02T01:08:46.105Z,18.40
2022-08-02T01:11:15.860Z,18.30
2022-08-02T01:13:44.873Z,18.20
2022-08-02T01:16:20.244Z,18.20
2022-08-02T01:18:55.688Z,18.10
2022-08-02T01:21:42.948Z,18.00
2022-08-02T01:24:37.504Z,18.00
2022-08-02T01:27:21.339Z,18.00
2022-08-02T01:29:58.377Z,17.90
2022-08-02T01:32:31.192Z,17.90
2022-08-02T01:35:04.233Z,17.90
2022-08-02T01:37:41.097Z,17.80
2022-08-02T01:40:13.854Z,17.70
2022-08-02T01:42:48.759Z,17.60
2022-08-02T01:45:21.078Z,17.60
2022-08-02T01:47:51.668Z,17.50
2022-08-02T01:50:26.864Z,17.40
2022-08-02T01:53:00.227Z,17.30
2022-08-02T01:55:35.355Z,17.30
2022-08-02T01:58:25.532Z,17.30
2022-08-02T02:00:59.742Z,17.30
2022-08-02T02:03:31.148Z,17.30
2022-08-02T02:06:06.847Z,17.20
2022-08-02T02:08:39.565Z,17.10
2022-08-02T02:12:05.849Z,17.10
2022-08-02T02:14:01.833Z,17.00
2022-08-02T02:16:33.567Z,16.90
2022-08-02T02:19:04.968Z,16.90
2022-08-02T02:21:35.136Z,16.80
2022-08-02T02:24:05.824Z,16.80
2022-08-02T02:26:41.390Z,16.70
2022-08-02T02:29:20.421Z,16.70
2022-08-02T02:31:54.700Z,16.60
2022-08-02T02:34:29.045Z,16.60
2022-08-02T02:37:01.713Z,16.60
2022-08-02T02:39:31.912Z,16.60
2022-08-02T02:42:04.636Z,16.60
2022-08-02T02:44:35.667Z,16.60
2022-08-02T02:47:07.036Z,16.60
2022-08-02T02:49:36.892Z,16.60
2022-08-02T02:52:07.973Z,16.60
2022-08-02T02:54:39.603Z,16.60
2022-08-02T02:57:09.243Z,16.60
2022-08-02T02:59:49.012Z,16.60
2022-08-02T03:02:20.161Z,16.70
2022-08-02T03:04:57.026Z,16.70
2022-08-02T03:07:27.374Z,16.60
2022-08-02T03:09:56.362Z,16.60
2022-08-02T03:12:31.452Z,16.50
2022-08-02T03:15:01.902Z,16.40
2022-08-02T03:17:41.385Z,16.40
2022-08-02T03:20:13.187Z,16.30
2022-08-02T03:22:42.366Z,16.30
2022-08-02T03:25:11.839Z,16.30
2022-08-02T03:27:41.430Z,16.40
2022-08-02T03:30:12.859Z,16.30
2022-08-02T03:32:44.895Z,16.30
2022-08-02T03:35:22.717Z,16.30
2022-08-02T03:37:55.380Z,16.30
2022-08-02T03:40:24.993Z,16.30
2022-08-02T03:42:54.717Z,16.30
2022-08-02T03:45:23.788Z,16.30
2022-08-02T03:47:53.925Z,16.30
2022-08-02T03:50:29.121Z,16.20
2022-08-02T03:52:58.085Z,16.20
2022-08-02T03:55:26.777Z,16.30
2022-08-02T03:57:55.429Z,16.20
2022-08-02T04:00:24.598Z,16.30
2022-08-02T04:02:54.930Z,16.30
2022-08-02T04:05:23.665Z,16.30
2022-08-02T04:08:36.353Z,16.30
2022-08-02T04:10:58.288Z,16.30
2022-08-02T04:13:36.157Z,16.40
2022-08-02T04:16:13.886Z,16.40
2022-08-02T04:18:47.684Z,16.40
2022-08-02T04:21:19.504Z,16.30
2022-08-02T04:23:50.076Z,16.40
2022-08-02T04:26:26.916Z,16.40
2022-08-02T04:28:58.161Z,16.30
2022-08-02T04:31:27.717Z,16.40
2022-08-02T04:33:58.229Z,16.30
2022-08-02T04:36:31.338Z,16.40
2022-08-02T04:39:00.753Z,16.40
2022-08-02T04:41:43.765Z,16.50
2022-08-02T04:44:13.395Z,16.50
2022-08-02T04:46:42.985Z,16.50
2022-08-02T04:49:13.569Z,16.50
2022-08-02T04:51:43.614Z,16.50
2022-08-02T04:54:12.895Z,16.50
2022-08-02T04:56:41.772Z,16.50
2022-08-02T04:59:10.432Z,16.50
2022-08-02T05:01:39.486Z,16.50
2022-08-02T05:04:08.205Z,16.50
2022-08-02T05:06:38.168Z,16.60
2022-08-02T05:09:06.808Z,16.60
2022-08-02T05:11:36.704Z,16.60
2022-08-02T05:14:06.814Z,16.70
2022-08-02T05:16:35.359Z,16.70
2022-08-02T05:19:04.205Z,16.80
2022-08-02T05:21:32.933Z,16.80
2022-08-02T05:24:02.993Z,16.90
2022-08-02T05:26:31.522Z,17.00
2022-08-02T05:29:00.236Z,17.10
2022-08-02T05:31:28.800Z,17.20
2022-08-02T05:33:57.483Z,17.30
2022-08-02T05:36:26.131Z,17.40
2022-08-02T05:38:59.722Z,17.50
2022-08-02T05:41:35.299Z,17.70
2022-08-02T05:44:04.014Z,17.80
2022-08-02T05:46:32.855Z,17.90
2022-08-02T05:49:01.757Z,18.10
2022-08-02T05:51:37.286Z,18.20
2022-08-02T05:54:13.770Z,18.30
2022-08-02T05:56:48.590Z,18.40
2022-08-02T05:59:27.785Z,18.50
2022-08-02T06:02:03.797Z,18.60
2022-08-02T06:04:39.306Z,18.70
2022-08-02T06:07:11.726Z,18.80
2022-08-02T06:09:41.644Z,18.80
2022-08-02T06:12:16.024Z,18.90
2022-08-02T06:14:45.135Z,19.10
2022-08-02T06:17:15.114Z,19.20
2022-08-02T06:19:51.988Z,19.30
2022-08-02T06:22:33.328Z,19.50
2022-08-02T06:25:06.165Z,19.50
2022-08-02T06:27:37.070Z,19.70
2022-08-02T06:30:07.298Z,19.80
2022-08-02T06:32:36.598Z,20.00
2022-08-02T06:35:07.494Z,20.10
2022-08-02T06:37:41.501Z,20.20
2022-08-02T06:40:15.842Z,20.40
2022-08-02T06:42:52.706Z,20.60
2022-08-02T06:45:21.609Z,20.80
2022-08-02T06:47:50.253Z,20.80
2022-08-02T06:50:19.005Z,20.70
2022-08-02T06:52:47.653Z,20.60
2022-08-02T06:55:16.805Z,20.70
2022-08-02T06:57:46.781Z,20.60
2022-08-02T07:00:16.237Z,21.00
2022-08-02T07:02:46.572Z,21.50
2022-08-02T07:05:15.684Z,21.80
2022-08-02T07:07:44.719Z,21.80
2022-08-02T07:10:14.153Z,21.70
2022-08-02T07:12:43.288Z,21.70
2022-08-02T07:15:14.080Z,21.60
2022-08-02T07:17:42.760Z,21.50
2022-08-02T07:20:11.800Z,21.20
2022-08-02T07:22:40.572Z,21.10
2022-08-02T07:25:10.304Z,21.10
2022-08-02T07:27:39.039Z,21.50
2022-08-02T07:30:09.012Z,21.90
2022-08-02T07:32:39.233Z,22.40
2022-08-02T07:35:09.132Z,22.60
2022-08-02T07:37:55.020Z,22.70
2022-08-02T07:40:27.397Z,23.10
2022-08-02T07:43:03.003Z,23.20
2022-08-02T07:45:35.714Z,23.20
2022-08-02T07:48:08.684Z,23.30
2022-08-02T07:50:37.510Z,23.20
2022-08-02T07:53:06.199Z,23.40
2022-08-02T07:55:39.381Z,23.60
2022-08-02T07:58:11.126Z,23.70
2022-08-02T08:00:42.200Z,23.70
2022-08-02T08:03:12.436Z,23.70
2022-08-02T08:05:41.159Z,23.90
2022-08-02T08:08:15.252Z,24.30
2022-08-02T08:10:45.784Z,24.40
2022-08-02T08:13:14.447Z,24.50
2022-08-02T08:15:51.448Z,24.80
2022-08-02T08:18:22.918Z,24.80
2022-08-02T08:20:52.056Z,24.50
2022-08-02T08:23:20.875Z,24.50
2022-08-02T08:25:49.758Z,24.80
2022-08-02T08:28:18.503Z,25.00
2022-08-02T08:30:47.730Z,25.30
2022-08-02T08:33:16.637Z,25.40
2022-08-02T08:35:46.670Z,25.60
2022-08-02T08:38:16.247Z,25.20
2022-08-02T08:40:45.111Z,25.00
2022-08-02T08:43:15.093Z,25.30
2022-08-02T08:45:46.070Z,25.40
2022-08-02T08:48:31.267Z,25.90
2022-08-02T08:51:08.997Z,26.50
2022-08-02T08:53:43.644Z,26.50
2022-08-02T08:56:16.248Z,27.10
2022-08-02T08:58:47.761Z,27.20
2022-08-02T09:01:17.651Z,26.70
2022-08-02T09:03:47.131Z,26.50
2022-08-02T09:06:17.392Z,27.20
2022-08-02T09:08:46.131Z,27.00
2022-08-02T09:11:16.850Z,26.70
2022-08-02T09:13:56.685Z,28.00
2022-08-02T09:16:34.396Z,28.90
2022-08-02T09:19:17.806Z,29.70
2022-08-02T09:21:49.894Z,30.40
2022-08-02T09:24:20.178Z,30.20
2022-08-02T09:26:50.374Z,30.30
2022-08-02T09:29:21.462Z,32.10
2022-08-02T09:31:51.097Z,32.90
2022-08-02T09:34:20.375Z,33.20
2022-08-02T09:36:54.298Z,33.90
2022-08-02T09:39:26.592Z,33.50
2022-08-02T09:42:11.361Z,33.30
2022-08-02T09:44:40.313Z,32.40
2022-08-02T09:47:18.304Z,33.10
2022-08-02T09:49:52.574Z,33.30
2022-08-02T09:52:37.124Z,34.50
2022-08-02T09:55:13.568Z,35.00
2022-08-02T09:57:42.300Z,34.80
2022-08-02T10:00:16.122Z,35.80
2022-08-02T10:03:21.617Z,36.40
2022-08-02T10:05:56.150Z,34.40
2022-08-02T10:08:33.667Z,36.20
2022-08-02T10:11:03.791Z,35.70
2022-08-02T10:13:34.639Z,36.70
2022-08-02T10:16:04.331Z,37.80
2022-08-02T10:18:41.270Z,38.10
2022-08-02T10:21:15.673Z,38.60
2022-08-02T10:23:50.830Z,38.70
2022-08-02T10:26:21.537Z,38.40
2022-08-02T10:28:51.262Z,38.20
2022-08-02T10:31:25.213Z,39.70
2022-08-02T10:33:55.457Z,38.20
2022-08-02T10:36:27.441Z,36.50
2022-08-02T10:38:59.837Z,36.90
2022-08-02T10:41:42.937Z,36.90
2022-08-02T10:44:24.731Z,36.60
2022-08-02T10:46:54.928Z,37.30
2022-08-02T10:49:39.254Z,39.10
2022-08-02T10:52:11.941Z,39.10
2022-08-02T10:54:44.112Z,39.60
2022-08-02T10:57:18.408Z,39.80
2022-08-02T10:59:47.413Z,39.50
2022-08-02T11:02:34.053Z,41.00
2022-08-02T11:05:08.113Z,41.50
2022-08-02T11:07:42.592Z,41.20
2022-08-02T11:10:37.673Z,40.00
2022-08-02T11:13:17.318Z,38.70
2022-08-02T11:16:06.505Z,37.20
2022-08-02T11:19:06.777Z,39.90
2022-08-02T11:21:36.875Z,40.70
2022-08-02T11:24:31.511Z,41.40
2022-08-02T11:27:02.739Z,40.30
2022-08-02T11:29:38.171Z,40.90
2022-08-02T11:32:10.049Z,41.40
2022-08-02T11:34:40.985Z,40.10
2022-08-02T11:37:10.459Z,39.70
2022-08-02T11:39:39.244Z,39.70
2022-08-02T11:42:09.809Z,39.70
2022-08-02T11:44:43.527Z,38.50
2022-08-02T11:47:12.848Z,40.20
2022-08-02T11:49:41.766Z,39.20
2022-08-02T11:52:12.253Z,37.60
2022-08-02T11:54:43.392Z,37.40
2022-08-02T11:57:20.343Z,39.50
2022-08-02T11:59:52.428Z,41.20
2022-08-02T12:02:23.211Z,40.50
2022-08-02T12:04:58.918Z,38.40
2022-08-02T12:07:34.848Z,38.60
2022-08-02T12:10:08.319Z,39.60
2022-08-02T12:12:50.552Z,39.40
2022-08-02T12:15:35.179Z,38.60
2022-08-02T12:18:21.957Z,37.60
2022-08-02T12:20:50.878Z,37.40
2022-08-02T12:23:19.550Z,39.50
2022-08-02T12:25:48.267Z,40.50
2022-08-02T12:28:23.218Z,39.80
2022-08-02T12:30:54.990Z,39.10
2022-08-02T12:33:25.218Z,39.70
2022-08-02T12:35:55.341Z,41.90
2022-08-02T12:38:24.472Z,41.80
2022-08-02T12:40:53.422Z,39.50
2022-08-02T12:43:25.654Z,42.10
2022-08-02T12:45:55.749Z,42.50
2022-08-02T12:48:38.453Z,43.70
2022-08-02T12:51:22.422Z,44.20
2022-08-02T12:53:58.956Z,42.80
2022-08-02T12:56:34.398Z,43.10
2022-08-02T12:59:05.865Z,42.90
2022-08-02T13:01:36.068Z,43.60
2022-08-02T13:04:10.899Z,43.00
2022-08-02T13:06:44.857Z,41.10
2022-08-02T13:09:16.474Z,37.70
2022-08-02T13:11:45.529Z,36.30
2022-08-02T13:14:16.011Z,38.20
2022-08-02T13:16:46.348Z,37.50
2022-08-02T13:19:16.646Z,37.60
2022-08-02T13:22:11.543Z,37.30
2022-08-02T13:24:39.729Z,39.50
2022-08-02T13:27:24.726Z,41.90
2022-08-02T13:29:56.842Z,43.90
2022-08-02T13:32:28.020Z,42.30
2022-08-02T13:34:56.696Z,41.80
2022-08-02T13:37:25.834Z,43.70
2022-08-02T13:40:19.956Z,41.60
2022-08-02T13:42:43.475Z,38.00
2022-08-02T13:45:14.651Z,35.90
2022-08-02T13:48:04.289Z,35.60
2022-08-02T13:50:33.984Z,35.10
2022-08-02T13:53:02.888Z,35.90
2022-08-02T13:55:31.887Z,36.90
2022-08-02T13:58:00.664Z,37.20
2022-08-02T14:00:35.810Z,37.30
2022-08-02T14:03:07.149Z,36.90
2022-08-02T14:05:47.308Z,36.60
2022-08-02T14:08:18.358Z,37.60
2022-08-02T14:10:48.023Z,36.90
2022-08-02T14:13:17.174Z,36.10
2022-08-02T14:15:47.775Z,35.60
2022-08-02T14:18:16.919Z,33.20
2022-08-02T14:20:45.854Z,33.70
2022-08-02T14:23:14.642Z,34.50
2022-08-02T14:25:43.691Z,33.50
2022-08-02T14:28:12.538Z,34.10
2022-08-02T14:30:41.318Z,33.50
2022-08-02T14:33:11.755Z,34.20
2022-08-02T14:35:40.342Z,34.60
2022-08-02T14:38:09.217Z,36.30
2022-08-02T14:40:38.186Z,37.30
2022-08-02T14:43:08.209Z,36.70
2022-08-02T14:45:41.107Z,35.80
2022-08-02T14:48:13.227Z,34.10
2022-08-02T14:50:42.188Z,34.70
2022-08-02T14:53:12.231Z,34.60
2022-08-02T14:55:43.195Z,35.50
2022-08-02T14:58:11.922Z,35.60
2022-08-02T15:00:43.731Z,35.60
2022-08-02T15:03:14.373Z,35.70
2022-08-02T15:05:43.086Z,34.80
2022-08-02T15:08:11.883Z,34.20
2022-08-02T15:10:46.881Z,34.10
2022-08-02T15:13:15.553Z,33.80
2022-08-02T15:15:44.445Z,33.70
2022-08-02T15:18:15.508Z,33.90
2022-08-02T15:20:57.210Z,33.10
2022-08-02T15:23:34.868Z,33.00
2022-08-02T15:26:07.073Z,33.20
2022-08-02T15:28:36.032Z,31.30
2022-08-02T15:31:04.785Z,30.70
2022-08-02T15:33:34.817Z,31.10
2022-08-02T15:36:03.870Z,31.60
2022-08-02T15:38:32.744Z,32.10
2022-08-02T15:41:01.574Z,32.30
2022-08-02T15:43:30.333Z,32.10
2022-08-02T15:45:59.711Z,31.50
2022-08-02T15:48:28.554Z,31.40
2022-08-02T15:50:58.776Z,31.20
2022-08-02T15:53:27.444Z,30.90
2022-08-02T15:56:05.381Z,30.80
2022-08-02T15:58:44.428Z,30.80
2022-08-02T16:01:13.797Z,30.80
2022-08-02T16:03:42.790Z,30.90
2022-08-02T16:06:13.105Z,30.10
2022-08-02T16:08:53.343Z,30.00
2022-08-02T16:11:23.535Z,30.20
2022-08-02T16:13:54.283Z,29.90
2022-08-02T16:16:24.484Z,29.20
2022-08-02T16:18:53.764Z,28.70
2022-08-02T16:21:25.003Z,28.30
2022-08-02T16:24:01.406Z,28.00
2022-08-02T16:26:32.587Z,27.90
2022-08-02T16:29:02.484Z,27.70
2022-08-02T16:31:31.285Z,27.50
2022-08-02T16:33:59.914Z,27.20
2022-08-02T16:36:30.642Z,27.10
2022-08-02T16:38:59.642Z,27.10
2022-08-02T16:41:51.901Z,27.10
2022-08-02T16:44:17.474Z,26.80
2022-08-02T16:46:46.322Z,26.70
2022-08-02T16:50:05.591Z,26.80
2022-08-02T16:52:09.948Z,26.70
2022-08-02T16:54:40.243Z,26.70
2022-08-02T16:57:08.922Z,26.50
2022-08-02T16:59:41.968Z,26.30
2022-08-02T17:02:18.202Z,26.20
2022-08-02T17:04:48.378Z,26.20
2022-08-02T17:08:08.430Z,26.10
2022-08-02T17:10:09.881Z,26.00
2022-08-02T17:12:39.945Z,26.00
2022-08-02T17:15:46.947Z,25.70
2022-08-02T17:18:00.779Z,25.50
2022-08-02T17:20:30.523Z,25.30
2022-08-02T17:23:00.966Z,25.10
2022-08-02T17:25:32.045Z,25.10
2022-08-02T17:28:01.318Z,25.00
2022-08-02T17:30:30.172Z,24.90
2022-08-02T17:32:59.508Z,24.80
2022-08-02T17:35:43.370Z,24.80
2022-08-02T17:38:17.887Z,24.60
2022-08-02T17:40:47.012Z,24.40
2022-08-02T17:43:18.391Z,24.40
2022-08-02T17:46:01.049Z,24.30
2022-08-02T17:54:32.796Z,23.70
2022-08-02T17:57:01.508Z,23.40
2022-08-02T17:59:41.570Z,23.30
2022-08-02T18:02:11.471Z,23.00
2022-08-02T18:04:40.737Z,22.70
2022-08-02T18:07:11.425Z,22.60
2022-08-02T18:09:47.191Z,22.50
2022-08-02T18:12:18.372Z,22.40
2022-08-02T18:14:49.360Z,22.30
2022-08-02T18:17:19.599Z,22.10
2022-08-02T18:19:53.333Z,22.00
2022-08-02T18:22:25.040Z,21.70
2022-08-02T18:24:56.852Z,21.50
2022-08-02T18:27:25.827Z,21.40
2022-08-02T18:30:00.257Z,21.30
2022-08-02T18:33:54.998Z,21.20
2022-08-02T18:35:23.672Z,21.10
2022-08-02T18:37:57.390Z,21.00
2022-08-02T18:40:34.193Z,20.90
2022-08-02T18:43:03.432Z,20.90
2022-08-02T18:46:05.999Z,20.80
2022-08-02T18:48:25.950Z,20.50
2022-08-02T18:50:59.009Z,20.20
2022-08-02T18:53:41.202Z,20.00
2022-08-02T18:56:20.484Z,19.90
2022-08-02T18:58:54.412Z,19.70
2022-08-02T19:01:31.930Z,19.60
2022-08-02T19:04:28.278Z,19.50
2022-08-02T19:07:07.688Z,19.50
2022-08-02T19:09:40.089Z,19.40
2022-08-02T19:12:12.570Z,19.20
2022-08-02T19:14:42.283Z,19.20
2022-08-02T19:17:54.548Z,19.10
2022-08-02T19:20:00.515Z,18.90
2022-08-02T19:22:30.577Z,18.80
2022-08-02T19:25:01.481Z,18.50
2022-08-02T19:27:34.463Z,18.50
2022-08-02T19:30:04.842Z,18.20
2022-08-02T19:32:41.213Z,18.10
2022-08-02T19:35:30.008Z,18.20
2022-08-02T19:38:09.019Z,18.20
2022-08-02T19:40:38.991Z,18.20
2022-08-02T19:44:27.028Z,18.20
2022-08-02T19:46:00.606Z,17.90
2022-08-02T19:48:29.720Z,17.90
2022-08-02T19:51:01.339Z,17.90
2022-08-02T19:53:48.513Z,17.80
2022-08-02T19:56:25.335Z,17.80
2022-08-02T19:58:58.139Z,17.70
2022-08-02T20:01:36.940Z,17.70
2022-08-02T20:04:12.835Z,17.70
2022-08-02T20:06:46.172Z,17.60
2022-08-02T20:09:21.437Z,17.60
2022-08-02T20:11:54.302Z,17.50
2022-08-02T20:14:28.089Z,17.50
2022-08-02T20:16:57.418Z,17.50
2022-08-02T20:19:28.979Z,17.40
2022-08-02T20:21:59.661Z,17.20
2022-08-02T20:24:30.565Z,17.20
2022-08-02T20:27:00.390Z,17.30
2022-08-02T20:29:42.867Z,17.30
2022-08-02T20:32:23.952Z,17.20
2022-08-02T20:34:53.373Z,17.20
2022-08-02T20:37:59.496Z,16.90
2022-08-02T20:40:17.079Z,16.70
2022-08-02T20:42:48.452Z,16.70
2022-08-02T20:45:19.547Z,16.50
2022-08-02T20:47:52.482Z,16.40
2022-08-02T20:50:39.546Z,16.40
2022-08-02T20:53:23.870Z,16.40
2022-08-02T20:55:59.701Z,16.40
2022-08-02T20:58:28.708Z,16.30
2022-08-02T21:01:01.579Z,16.20
2022-08-02T21:03:40.173Z,16.20
2022-08-02T21:06:15.185Z,16.20
2022-08-02T21:08:46.479Z,16.30
2022-08-02T21:11:17.056Z,16.10
2022-08-02T21:14:08.125Z,16.10
2022-08-02T21:16:37.386Z,16.00
2022-08-02T21:19:07.931Z,15.90
2022-08-02T21:21:39.175Z,15.80
2022-08-02T21:24:12.420Z,15.90
2022-08-02T21:26:41.932Z,15.90
2022-08-02T21:29:13.690Z,15.90
2022-08-02T21:31:44.864Z,15.80
2022-08-02T21:34:26.472Z,15.80
2022-08-02T21:36:56.999Z,15.70
2022-08-02T21:39:26.028Z,15.60
2022-08-02T21:41:55.024Z,15.60
2022-08-02T21:44:24.128Z,15.60
2022-08-02T21:46:56.060Z,15.60
2022-08-02T21:50:09.370Z,15.60
2022-08-02T21:52:16.391Z,15.50
2022-08-02T21:54:45.811Z,15.50
2022-08-02T22:00:05.768Z,15.30
2022-08-02T22:02:39.235Z,15.40
2022-08-02T22:05:14.298Z,15.40
2022-08-02T22:07:45.810Z,15.30
2022-08-02T22:10:15.495Z,15.30
2022-08-02T22:12:44.949Z,15.30
2022-08-02T22:15:14.435Z,15.30
2022-08-02T22:17:50.819Z,15.20
2022-08-02T22:20:23.532Z,15.10
2022-08-02T22:22:53.318Z,15.00
2022-08-02T22:25:33.281Z,14.90
2022-08-02T22:28:35.101Z,14.80
2022-08-02T22:30:56.625Z,14.80
2022-08-02T22:33:47.331Z,14.60
2022-08-02T22:36:30.408Z,14.60
2022-08-02T22:39:00.146Z,14.50
2022-08-02T22:42:01.854Z,14.50
2022-08-02T22:44:20.079Z,14.50
2022-08-02T22:46:49.905Z,14.50
2022-08-02T22:49:37.925Z,14.50
2022-08-02T22:52:10.693Z,14.50
2022-08-02T22:54:39.969Z,14.50
2022-08-02T22:57:11.249Z,14.40
2022-08-02T22:58:48.846Z,24.10
2022-08-02T22:58:50.686Z,23.90
2022-08-02T22:59:10.496Z,15.40
2022-08-02T22:59:41.649Z,14.40
2022-08-02T23:02:11.348Z,14.30
2022-08-02T23:04:42.109Z,14.30
2022-08-02T23:07:11.137Z,14.30
2022-08-02T23:09:39.881Z,14.30
2022-08-02T23:12:09.114Z,14.30
2022-08-02T23:14:37.929Z,14.30
2022-08-02T23:17:25.614Z,14.40
2022-08-02T23:19:56.024Z,14.30
2022-08-02T23:22:29.775Z,14.20
2022-08-02T23:25:02.209Z,14.20
2022-08-02T23:27:31.879Z,14.00
2022-08-02T23:30:01.373Z,14.00
2022-08-02T23:32:31.692Z,14.00
2022-08-02T23:35:02.315Z,13.90
2022-08-02T23:37:57.895Z,13.90
2022-08-02T23:40:39.416Z,13.90
2022-08-02T23:43:14.127Z,13.90
2022-08-02T23:45:44.503Z,13.90
2022-08-02T23:48:13.370Z,13.90
2022-08-02T23:50:43.768Z,14.00
2022-08-02T23:53:12.712Z,13.90
2022-08-02T23:55:41.729Z,13.90
2022-08-02T23:58:10.696Z,13.80
